Time;durP1;ratioP1;P1;durP2;ratioP2;P2;SDS_P1;SDS_P2;PMS_P1;PMS_P2;Temp;Humidity;BMP_temperature;BMP_pressure;BME280_temperature;BME280_humidity;BME280_pressure;Samples;Min_cycle;Max_cycle;Signal;HPM_P1;HPM_P2
2021/05/04 00:03:00;;;;;;;15.38;9.95;;;;;;;2.54;74.82;98903.05;2145681;83;21179;-81
2021/05/04 00:06:02;;;;;;;15.53;8.85;;;;;;;2.60;74.83;98908.20;2145866;83;22255;-80
2021/05/04 00:09:04;;;;;;;14.80;9.55;;;;;;;2.64;74.76;98907.00;2145711;83;21146;-79
2021/05/04 00:12:06;;;;;;;30.77;19.82;;;;;;;2.66;74.72;98902.55;2145678;83;21182;-79
2021/05/04 00:15:07;;;;;;;37.45;17.85;;;;;;;2.66;74.72;98890.91;2155568;83;21171;-79
2021/05/04 00:18:09;;;;;;;27.75;13.50;;;;;;;2.65;74.66;98890.54;2142183;83;21322;-79
2021/05/04 00:21:10;;;;;;;18.95;10.35;;;;;;;2.62;74.68;98885.16;2155677;83;21190;-79
2021/05/04 00:24:12;;;;;;;17.23;8.88;;;;;;;2.61;74.74;98891.75;2142435;83;21861;-79
2021/05/04 00:27:14;;;;;;;17.07;9.15;;;;;;;2.60;74.63;98886.23;2142542;83;21302;-80
2021/05/04 00:30:17;;;;;;;16.87;9.60;;;;;;;2.59;74.63;98881.53;2142617;83;21481;-79
2021/05/04 00:33:18;;;;;;;15.90;9.30;;;;;;;2.60;74.72;98880.59;2142261;83;21159;-80
2021/05/04 00:36:20;;;;;;;19.98;10.65;;;;;;;2.61;74.78;98881.41;2142467;83;21333;-80
2021/05/04 00:39:26;;;;;;;18.67;10.58;;;;;;;2.60;74.88;98882.36;2155286;83;21317;-80
2021/05/04 00:42:25;;;;;;;15.20;9.58;;;;;;;2.58;74.76;98889.42;2141867;83;21298;-80
2021/05/04 00:45:28;;;;;;;17.92;10.60;;;;;;;2.53;74.78;98878.14;2142410;83;21325;-79
2021/05/04 00:48:30;;;;;;;17.02;11.03;;;;;;;2.50;74.82;98884.39;2155742;83;21215;-80
2021/05/04 00:51:32;;;;;;;21.77;12.20;;;;;;;2.49;74.76;98876.77;2142302;83;21756;-81
2021/05/04 00:54:33;;;;;;;49.33;33.70;;;;;;;2.50;74.82;98874.05;2155565;83;21167;-79
2021/05/04 00:57:35;;;;;;;43.05;23.60;;;;;;;2.51;74.86;98881.34;2142572;83;21182;-80
2021/05/04 01:00:37;;;;;;;30.62;16.07;;;;;;;2.51;74.89;98879.57;2155902;83;21191;-80
2021/05/04 01:03:38;;;;;;;21.97;12.37;;;;;;;2.53;74.88;98871.69;2142504;83;21326;-80
2021/05/04 01:06:40;;;;;;;21.30;12.07;;;;;;;2.50;74.85;98864.19;2155818;83;21163;-80
2021/05/04 01:09:42;;;;;;;20.35;12.47;;;;;;;2.47;74.79;98861.39;2142288;83;21293;-80
2021/05/04 01:12:44;;;;;;;19.62;12.88;;;;;;;2.43;74.82;98863.04;2155733;83;21128;-80
2021/05/04 01:15:46;;;;;;;19.48;11.68;;;;;;;2.40;74.84;98865.41;2121772;83;21335;-79
2021/05/04 01:18:48;;;;;;;20.25;12.20;;;;;;;2.38;74.91;98861.28;2116982;83;21274;-80
2021/05/04 01:21:49;;;;;;;22.98;11.85;;;;;;;2.37;74.95;98863.05;2153363;82;21313;-80
2021/05/04 01:24:51;;;;;;;22.55;13.93;;;;;;;2.38;74.98;98859.99;2117151;83;21769;-79
2021/05/04 01:27:53;;;;;;;23.87;14.05;;;;;;;2.37;74.88;98860.94;2153316;82;21325;-79
2021/05/04 01:30:55;;;;;;;25.60;13.98;;;;;;;2.35;74.93;98848.15;2116878;84;21337;-79
2021/05/04 01:33:57;;;;;;;27.22;15.70;;;;;;;2.34;74.95;98854.73;2153270;82;21302;-79
2021/05/04 01:36:59;;;;;;;25.43;17.45;;;;;;;2.32;75.07;98852.28;2117137;84;21326;-80
2021/05/04 01:40:01;;;;;;;29.57;17.23;;;;;;;2.31;74.98;98849.35;2153275;82;21136;-81
2021/05/04 01:43:02;;;;;;;25.70;16.00;;;;;;;2.32;75.09;98841.95;2116907;83;21587;-80
2021/05/04 01:46:04;;;;;;;27.65;16.70;;;;;;;2.33;75.14;98835.83;2153440;82;21155;-81
2021/05/04 01:49:06;;;;;;;29.67;15.90;;;;;;;2.33;75.15;98830.66;2117083;84;21277;-79
2021/05/04 01:52:07;;;;;;;31.75;18.05;;;;;;;2.34;75.15;98830.19;2153167;82;21298;-80
2021/05/04 01:55:09;;;;;;;31.45;18.15;;;;;;;2.31;75.18;98826.09;2116879;83;21187;-80
2021/05/04 01:58:11;;;;;;;34.15;18.62;;;;;;;2.27;75.11;98820.81;2152818;82;21766;-80
2021/05/04 02:01:13;;;;;;;31.70;17.67;;;;;;;2.25;75.27;98827.40;2116857;83;21178;-80
2021/05/04 02:04:15;;;;;;;25.50;17.42;;;;;;;2.25;75.26;98816.25;2153125;82;21611;-80
2021/05/04 02:07:17;;;;;;;37.85;19.90;;;;;;;2.27;75.37;98815.64;2116642;83;21314;-81
2021/05/04 02:10:19;;;;;;;34.55;19.48;;;;;;;2.30;75.34;98814.13;2153043;82;21175;-80
2021/05/04 02:13:23;;;;;;;38.50;20.70;;;;;;;2.33;75.30;98813.05;2116852;84;21804;-80
2021/05/04 02:16:27;;;;;;;31.77;20.05;;;;;;;2.32;75.29;98810.94;2180871;81;21187;-79
2021/05/04 02:19:29;;;;;;;40.92;22.75;;;;;;;2.32;75.32;98817.40;2156113;83;21209;-79
2021/05/04 02:22:31;;;;;;;41.13;21.50;;;;;;;2.29;75.35;98813.78;2145999;83;21206;-79
2021/05/04 02:25:33;;;;;;;43.15;22.35;;;;;;;2.29;75.26;98811.20;2156264;83;21622;-79
2021/05/04 02:28:35;;;;;;;43.20;21.45;;;;;;;2.34;75.28;98810.80;2145925;83;21586;-78
2021/05/04 02:31:37;;;;;;;45.98;22.27;;;;;;;2.37;75.33;98807.48;2156084;83;21328;-78
2021/05/04 02:34:39;;;;;;;46.95;24.60;;;;;;;2.38;75.25;98808.31;2145653;83;21778;-80
2021/05/04 02:37:41;;;;;;;43.90;24.12;;;;;;;2.35;75.30;98803.40;2156093;83;21741;-78
2021/05/04 02:40:43;;;;;;;46.53;24.37;;;;;;;2.35;75.30;98811.97;2145847;83;21385;-78
2021/05/04 02:43:45;;;;;;;45.08;24.80;;;;;;;2.33;75.32;98801.42;2156346;83;21309;-78
2021/05/04 02:46:46;;;;;;;48.42;23.65;;;;;;;2.33;75.34;98803.53;2146002;83;21289;-78
2021/05/04 02:49:48;;;;;;;46.83;24.95;;;;;;;2.35;75.33;98802.92;2156755;83;21512;-80
2021/05/04 02:52:50;;;;;;;46.80;25.35;;;;;;;2.38;75.39;98807.02;2145812;83;21731;-80
2021/05/04 02:55:52;;;;;;;44.73;25.55;;;;;;;2.38;75.44;98808.31;2156206;83;21308;-79
2021/05/04 02:59:06;;;;;;;46.33;26.00;;;;;;;2.37;75.47;98806.20;2145956;83;21301;-78
2021/05/04 03:02:10;;;;;;;45.08;25.48;;;;;;;2.37;75.45;98795.05;2155723;83;21156;-79
2021/05/04 03:05:11;;;;;;;52.00;26.90;;;;;;;2.36;75.42;98789.05;2145496;83;21305;-79
2021/05/04 03:08:13;;;;;;;45.08;25.02;;;;;;;2.38;75.46;98794.09;2156372;83;21353;-79
2021/05/04 03:11:15;;;;;;;48.65;26.10;;;;;;;2.41;75.44;98791.28;2145687;83;21641;-79
2021/05/04 03:14:17;;;;;;;40.95;23.27;;;;;;;2.43;75.45;98786.80;2156257;83;21802;-79
2021/05/04 03:17:19;;;;;;;41.95;24.15;;;;;;;2.46;75.38;98784.77;2142516;83;21639;-79
2021/05/04 03:20:21;;;;;;;45.25;25.80;;;;;;;2.51;75.40;98781.81;2155808;83;21194;-79
2021/05/04 03:23:22;;;;;;;37.25;21.93;;;;;;;2.61;75.33;98770.24;2142582;83;21152;-79
2021/05/04 03:26:24;;;;;;;39.42;23.27;;;;;;;2.75;75.20;98772.03;2155677;83;21218;-79
2021/05/04 03:29:26;;;;;;;37.35;21.75;;;;;;;2.94;74.92;98770.01;2142330;83;21737;-80
2021/05/04 03:32:28;;;;;;;39.15;22.85;;;;;;;3.19;74.56;98775.66;2155760;83;21615;-78
2021/05/04 03:35:30;;;;;;;32.53;20.75;;;;;;;3.47;74.16;98758.58;2142283;83;21306;-79
2021/05/04 03:38:31;;;;;;;36.70;19.87;;;;;;;3.79;73.71;98763.06;2155535;83;21182;-80
2021/05/04 03:41:33;;;;;;;34.75;20.25;;;;;;;4.12;73.06;98757.96;2142367;83;21619;-80
2021/05/04 03:44:35;;;;;;;32.33;19.60;;;;;;;4.54;72.65;98766.20;2155781;83;21190;-80
2021/05/04 03:47:38;;;;;;;36.23;21.30;;;;;;;5.04;72.12;98761.22;2142202;83;21190;-79
2021/05/04 03:50:41;;;;;;;37.17;20.32;;;;;;;5.46;71.31;98751.16;2155773;83;21567;-79
2021/05/04 03:53:43;;;;;;;31.77;20.25;;;;;;;5.92;70.79;98750.17;2142497;83;21757;-80
2021/05/04 03:56:45;;;;;;;29.85;20.80;;;;;;;6.40;69.84;98755.46;2155539;83;21647;-79
2021/05/04 03:59:47;;;;;;;31.85;20.02;;;;;;;6.94;69.23;98746.16;2142136;83;21356;-79
2021/05/04 04:02:49;;;;;;;30.50;20.20;;;;;;;7.48;68.76;98745.39;2155395;83;21689;-79
2021/05/04 04:05:52;;;;;;;28.12;19.17;;;;;;;8.04;68.03;98743.36;2142208;83;21327;-79
2021/05/04 04:08:54;;;;;;;29.63;20.45;;;;;;;8.61;66.07;98743.37;2155398;83;21606;-80
2021/05/04 04:11:56;;;;;;;27.85;18.95;;;;;;;9.61;64.79;98727.95;2142205;83;21136;-79
2021/05/04 04:14:57;;;;;;;27.87;17.98;;;;;;;9.61;64.79;98727.95;2155452;83;21171;-79
2021/05/04 04:17:59;;;;;;;30.48;19.05;;;;;;;10.23;62.18;98738.30;2142501;83;21353;-79
2021/05/04 04:21:02;;;;;;;26.40;18.48;;;;;;;10.77;63.53;98745.48;2155646;83;21156;-80
2021/05/04 04:24:04;;;;;;;24.90;17.32;;;;;;;11.42;61.00;98738.66;2142594;83;21301;-80
2021/05/04 04:27:06;;;;;;;27.00;17.42;;;;;;;11.91;60.47;98740.64;2155318;83;21179;-82
2021/05/04 04:30:08;;;;;;;27.58;17.52;;;;;;;12.28;57.65;98734.31;2142439;83;21310;-80
2021/05/04 04:33:10;;;;;;;22.02;15.23;;;;;;;12.31;58.33;98732.61;2155762;83;21159;-80
2021/05/04 04:36:12;;;;;;;25.00;16.25;;;;;;;12.67;57.23;98735.09;2142199;83;21726;-79
2021/05/04 04:39:13;;;;;;;23.80;17.70;;;;;;;12.97;56.88;98729.09;2155393;83;21182;-80
2021/05/04 04:42:15;;;;;;;23.73;15.03;;;;;;;13.42;56.63;98726.91;2142076;83;21329;-80
2021/05/04 04:45:17;;;;;;;25.48;15.72;;;;;;;13.51;53.74;98730.98;2155729;83;21171;-80
2021/05/04 04:48:19;;;;;;;21.10;15.63;;;;;;;13.45;54.93;98717.83;2142437;83;21334;-79
2021/05/04 04:51:21;;;;;;;23.62;15.72;;;;;;;13.31;54.23;98726.16;2155747;83;21203;-80
2021/05/04 04:54:23;;;;;;;19.65;13.80;;;;;;;13.19;54.46;98730.34;2142265;83;21606;-80
2021/05/04 04:57:26;;;;;;;23.18;15.03;;;;;;;13.09;53.10;98730.70;2155523;83;21162;-79
2021/05/04 05:00:27;;;;;;;17.15;13.78;;;;;;;13.04;53.64;98726.52;2142156;83;21790;-79
2021/05/04 05:03:29;;;;;;;19.92;13.48;;;;;;;12.92;52.24;98721.51;2155246;83;21641;-80
2021/05/04 05:06:31;;;;;;;19.32;13.58;;;;;;;12.82;52.19;98727.11;2142374;83;21187;-79
2021/05/04 05:09:35;;;;;;;18.45;13.18;;;;;;;12.74;52.78;98722.82;2155170;83;21164;-80
2021/05/04 05:12:37;;;;;;;21.17;12.10;;;;;;;12.78;51.85;98720.61;2142194;83;21345;-80
2021/05/04 05:15:40;;;;;;;21.05;14.15;;;;;;;12.78;51.85;98720.61;2150040;83;21346;-79
2021/05/04 05:18:42;;;;;;;20.55;12.00;;;;;;;12.81;52.28;98721.05;2116723;84;21140;-80
2021/05/04 05:21:44;;;;;;;19.70;11.57;;;;;;;12.90;51.76;98713.02;2116747;84;21750;-80
2021/05/04 05:24:45;;;;;;;16.12;10.60;;;;;;;12.92;51.68;98703.11;2153269;82;21183;-80
2021/05/04 05:27:47;;;;;;;16.77;11.83;;;;;;;12.94;49.90;98699.78;2116796;84;21325;-81
2021/05/04 05:30:52;;;;;;;17.62;11.40;;;;;;;13.03;50.49;98701.23;2153169;82;21306;-83
2021/05/04 05:33:53;;;;;;;19.23;12.45;;;;;;;13.15;49.89;98712.00;2116694;82;21162;-81
2021/05/04 05:36:55;;;;;;;17.65;11.38;;;;;;;13.04;49.76;98702.86;2153323;83;21734;-82
2021/05/04 05:39:57;;;;;;;22.22;12.40;;;;;;;12.99;49.60;98702.65;2117041;83;21341;-79
2021/05/04 05:42:59;;;;;;;15.70;11.15;;;;;;;12.96;49.32;98697.77;2153315;82;21322;-80
2021/05/04 05:46:03;;;;;;;15.95;11.93;;;;;;;12.98;49.55;98701.00;2117217;83;21619;-79
2021/05/04 05:49:04;;;;;;;17.80;9.40;;;;;;;13.10;49.78;98696.83;2153199;82;21116;-80
2021/05/04 05:52:06;;;;;;;14.20;9.33;;;;;;;13.21;48.35;98698.92;2117064;84;21298;-80
2021/05/04 05:55:08;;;;;;;11.93;8.08;;;;;;;13.41;48.37;98683.20;2153341;83;21282;-78
2021/05/04 05:58:10;;;;;;;15.32;7.75;;;;;;;13.41;48.37;98683.20;2117211;83;21308;-77
2021/05/04 06:01:12;;;;;;;9.60;6.78;;;;;;;13.47;47.73;98674.53;2153270;82;21267;-77
2021/05/04 06:04:14;;;;;;;9.08;6.75;;;;;;;13.79;47.86;98669.52;2117043;84;21301;-77
2021/05/04 06:07:16;;;;;;;8.20;6.00;;;;;;;13.80;47.46;98654.83;2153226;83;21155;-79
2021/05/04 06:10:18;;;;;;;9.83;7.30;;;;;;;13.80;47.46;98654.83;2116933;83;21155;-77
2021/05/04 06:13:20;;;;;;;9.55;6.12;;;;;;;13.86;47.64;98650.09;2153595;82;21278;-77
2021/05/04 06:16:23;;;;;;;10.78;5.97;;;;;;;13.92;47.45;98655.88;2132151;83;21309;-77
2021/05/04 06:19:25;;;;;;;9.50;7.22;;;;;;;13.92;47.84;98653.75;2156340;83;21313;-77
2021/05/04 06:22:27;;;;;;;9.05;6.65;;;;;;;13.98;47.95;98655.55;2145781;83;21333;-77
2021/05/04 06:25:29;;;;;;;8.50;4.60;;;;;;;14.08;47.64;98653.83;2156514;83;21325;-77
2021/05/04 06:28:31;;;;;;;7.22;6.35;;;;;;;14.13;46.97;98644.83;2146046;83;21191;-77
2021/05/04 06:31:33;;;;;;;5.72;4.25;;;;;;;14.18;46.44;98635.31;2156156;83;21737;-77
2021/05/04 06:34:35;;;;;;;3.80;3.50;;;;;;;14.29;46.72;98629.92;2146171;83;21329;-77
2021/05/04 06:37:37;;;;;;;3.87;3.10;;;;;;;14.30;46.64;98629.42;2156099;83;21642;-77
2021/05/04 06:40:39;;;;;;;4.15;3.77;;;;;;;14.30;45.52;98619.69;2146254;83;21606;-76
2021/05/04 06:43:40;;;;;;;5.95;3.77;;;;;;;14.28;45.97;98618.28;2156471;83;22211;-77
2021/05/04 06:46:42;;;;;;;4.85;4.35;;;;;;;14.22;46.13;98610.18;2146030;83;21305;-77
2021/05/04 06:49:44;;;;;;;4.40;3.75;;;;;;;14.18;44.81;98609.48;2156335;83;21725;-78
2021/05/04 06:52:47;;;;;;;4.20;3.67;;;;;;;14.17;45.76;98602.09;2145981;83;21737;-77
2021/05/04 06:55:49;;;;;;;3.58;2.98;;;;;;;14.16;45.63;98587.29;2156196;83;21634;-78
2021/05/04 06:58:51;;;;;;;3.45;2.98;;;;;;;14.18;45.20;98579.21;2145842;83;21212;-78
2021/05/04 07:01:53;;;;;;;4.15;3.60;;;;;;;14.17;45.15;98577.09;2156248;83;21336;-79
2021/05/04 07:04:55;;;;;;;3.50;3.02;;;;;;;14.22;44.90;98576.45;2146116;83;21337;-77
2021/05/04 07:07:57;;;;;;;3.65;3.08;;;;;;;14.28;45.06;98570.88;2156174;83;21821;-80
2021/05/04 07:10:59;;;;;;;3.37;2.80;;;;;;;14.39;44.41;98568.92;2145886;83;21334;-80
2021/05/04 07:14:02;;;;;;;4.03;2.92;;;;;;;14.53;44.30;98565.24;2156169;83;21174;-79
2021/05/04 07:17:04;;;;;;;4.10;2.25;;;;;;;14.65;43.22;98553.05;2145685;83;21190;-78
2021/05/04 07:20:06;;;;;;;3.20;2.55;;;;;;;14.84;43.75;98550.02;2156226;83;21151;-78
2021/05/04 07:23:10;;;;;;;2.35;2.25;;;;;;;14.92;42.14;98539.23;2145937;83;21179;-80
2021/05/04 07:26:15;;;;;;;2.87;2.40;;;;;;;15.02;42.40;98539.58;2156598;83;21135;-82
2021/05/04 07:29:17;;;;;;;2.90;2.17;;;;;;;15.11;42.57;98542.77;2145845;83;21860;-83
2021/05/04 07:32:19;;;;;;;4.78;3.55;;;;;;;15.17;42.31;98527.41;2156210;83;21218;-81
2021/05/04 07:35:21;;;;;;;2.80;2.60;;;;;;;15.29;42.71;98524.39;2146111;83;21749;-80
2021/05/04 07:38:23;;;;;;;3.72;3.33;;;;;;;15.38;42.36;98524.13;2156114;83;21194;-80
2021/05/04 07:41:25;;;;;;;3.17;2.65;;;;;;;15.44;42.24;98515.34;2146041;83;21349;-83
2021/05/04 07:44:27;;;;;;;3.60;2.83;;;;;;;15.46;42.32;98515.95;2156208;83;21310;-82
2021/05/04 07:47:29;;;;;;;3.10;2.67;;;;;;;15.52;42.26;98510.60;2146079;83;21336;-81
2021/05/04 07:50:33;;;;;;;4.78;3.12;;;;;;;15.56;41.73;98511.00;2156663;83;21333;-83
2021/05/04 07:53:35;;;;;;;3.70;3.08;;;;;;;15.68;41.81;98505.84;2146051;83;21635;-80
2021/05/04 07:56:36;;;;;;;3.22;3.02;;;;;;;15.85;41.19;98504.26;2156095;83;21289;-80
2021/05/04 07:59:38;;;;;;;8.35;4.30;;;;;;;16.05;40.74;98492.97;2145785;83;21278;-78
2021/05/04 08:02:40;;;;;;;3.00;2.70;;;;;;;16.25;40.60;98485.34;2155866;83;21159;-78
2021/05/04 08:05:42;;;;;;;3.40;3.00;;;;;;;16.37;40.84;98490.99;2145555;83;21277;-81
2021/05/04 08:08:44;;;;;;;3.45;3.15;;;;;;;16.50;39.81;98488.17;2156168;83;21301;-80
2021/05/04 08:11:47;;;;;;;3.47;3.00;;;;;;;16.54;38.95;98480.59;2145917;83;21319;-82
2021/05/04 08:14:48;;;;;;;4.75;3.45;;;;;;;16.54;39.93;98483.75;2156032;83;21147;-81
2021/05/04 08:17:55;;;;;;;3.12;2.40;;;;;;;16.49;39.60;98479.95;2145587;83;21301;-80
2021/05/04 08:20:56;;;;;;;2.77;2.58;;;;;;;16.40;39.84;98472.56;2155607;82;21120;-82
2021/05/04 08:23:58;;;;;;;4.60;3.35;;;;;;;16.34;39.97;98472.12;2146047;83;21162;-82
2021/05/04 08:26:59;;;;;;;3.77;3.37;;;;;;;16.20;39.58;98462.23;2156172;82;21330;-80
2021/05/04 08:30:01;;;;;;;3.05;2.85;;;;;;;15.84;39.17;98470.45;2145894;83;21761;-80
2021/05/04 08:33:03;;;;;;;3.72;3.10;;;;;;;15.45;39.88;98475.55;2156068;83;21662;-79
2021/05/04 08:36:05;;;;;;;3.25;2.87;;;;;;;15.15;40.15;98472.75;2145814;83;21183;-80
2021/05/04 08:39:07;;;;;;;5.75;3.08;;;;;;;15.02;40.52;98474.18;2156117;83;21333;-81
2021/05/04 08:42:09;;;;;;;3.83;3.52;;;;;;;14.98;40.61;98469.83;2146087;83;21634;-82
2021/05/04 08:45:11;;;;;;;5.28;3.42;;;;;;;15.01;40.85;98463.34;2156000;83;21195;-83
2021/05/04 08:48:13;;;;;;;4.55;3.12;;;;;;;15.07;41.20;98461.14;2145657;83;21340;-78
2021/05/04 08:51:14;;;;;;;3.37;2.65;;;;;;;15.20;40.60;98451.03;2155998;83;21182;-79
2021/05/04 08:54:16;;;;;;;2.98;2.52;;;;;;;15.38;40.64;98439.20;2146063;83;21163;-80
2021/05/04 08:57:18;;;;;;;2.83;2.62;;;;;;;15.58;40.85;98425.30;2156315;83;21147;-81
2021/05/04 09:00:20;;;;;;;2.95;2.65;;;;;;;15.89;40.55;98409.86;2146078;83;21185;-81
2021/05/04 09:03:24;;;;;;;3.10;2.77;;;;;;;16.22;40.27;98409.98;2156097;83;21175;-79
2021/05/04 09:06:26;;;;;;;4.80;3.35;;;;;;;16.48;40.54;98407.00;2145627;83;21316;-80
2021/05/04 09:09:32;;;;;;;3.00;2.80;;;;;;;16.81;40.00;98411.01;2156273;83;21308;-80
2021/05/04 09:12:35;;;;;;;8.65;3.67;;;;;;;17.03;39.82;98400.72;2145579;83;21318;-80
2021/05/04 09:19:14;;;;;;;4.40;3.58;;;;;;;16.91;39.17;98403.33;2142590;83;21313;-80
2021/05/04 09:22:17;;;;;;;3.72;3.42;;;;;;;16.83;39.62;98396.27;2155760;82;21293;-79
2021/05/04 09:25:16;;;;;;;5.47;3.65;;;;;;;16.78;39.87;98391.13;2145721;83;21725;-80
2021/05/04 09:28:19;;;;;;;4.55;3.67;;;;;;;16.71;39.98;98389.09;2156339;83;21349;-82
2021/05/04 09:31:21;;;;;;;4.95;3.08;;;;;;;16.48;39.84;98388.50;2145826;83;21324;-82
2021/05/04 09:34:23;;;;;;;6.17;3.15;;;;;;;16.41;40.91;98375.89;2155987;83;21207;-80
2021/05/04 09:37:24;;;;;;;3.67;3.10;;;;;;;16.38;40.50;98372.39;2145948;83;21154;-79
2021/05/04 09:40:26;;;;;;;4.05;3.27;;;;;;;16.31;40.29;98367.70;2156422;82;21599;-80
2021/05/04 09:43:28;;;;;;;3.83;3.52;;;;;;;16.31;40.78;98369.54;2145825;83;21306;-79
2021/05/04 09:46:31;;;;;;;4.15;3.85;;;;;;;16.46;40.64;98354.89;2156299;83;21760;-79
2021/05/04 09:49:32;;;;;;;3.42;3.12;;;;;;;16.71;40.97;98358.70;2146182;83;21277;-82
2021/05/04 09:52:39;;;;;;;3.75;3.45;;;;;;;16.89;39.71;98355.16;2156466;83;21303;-79
2021/05/04 09:55:40;;;;;;;3.47;3.20;;;;;;;16.95;40.13;98346.84;2145892;83;21282;-79
2021/05/04 09:58:42;;;;;;;3.85;3.47;;;;;;;17.03;40.02;98343.34;2156050;83;21293;-79
2021/05/04 10:01:44;;;;;;;4.87;2.92;;;;;;;16.98;40.41;98341.88;2145888;83;21159;-81
2021/05/04 10:04:46;;;;;;;3.25;2.95;;;;;;;16.96;40.52;98336.02;2155960;83;21301;-80
2021/05/04 10:07:48;;;;;;;3.25;2.95;;;;;;;17.01;41.10;98337.48;2145839;83;21618;-80
2021/05/04 10:10:50;;;;;;;3.62;3.10;;;;;;;17.16;40.15;98325.61;2156423;83;21298;-80
2021/05/04 10:13:52;;;;;;;3.50;3.30;;;;;;;17.28;39.33;98306.55;2146264;83;21282;-80
2021/05/04 10:16:54;;;;;;;3.45;3.15;;;;;;;17.45;39.76;98296.06;2152058;83;21314;-80
2021/05/04 10:19:56;;;;;;;3.47;3.25;;;;;;;17.61;40.09;98288.20;2116899;83;21313;-87
2021/05/04 10:22:58;;;;;;;3.67;3.37;;;;;;;17.83;39.93;98283.11;2117341;83;21156;-86
2021/05/04 10:26:00;;;;;;;3.90;3.12;;;;;;;18.06;39.48;98276.89;2153552;82;21346;-81
2021/05/04 10:29:02;;;;;;;3.00;2.80;;;;;;;18.25;38.93;98271.37;2116838;84;21817;-81
2021/05/04 10:32:04;;;;;;;3.72;3.42;;;;;;;18.37;38.70;98259.64;2153323;82;21152;-83
2021/05/04 10:35:07;;;;;;;4.03;3.27;;;;;;;18.48;38.83;98256.66;2117168;84;22263;-83
2021/05/04 10:38:09;;;;;;;3.72;3.17;;;;;;;18.59;38.60;98245.69;2153343;82;21183;-81
2021/05/04 10:41:11;;;;;;;5.12;2.62;;;;;;;18.72;38.13;98234.77;2117184;84;21309;-79
2021/05/04 10:44:13;;;;;;;2.75;2.52;;;;;;;18.82;38.32;98237.56;2153445;83;21183;-82
2021/05/04 10:47:15;;;;;;;4.25;3.85;;;;;;;18.92;38.23;98232.39;2117166;84;21183;-79
2021/05/04 10:50:18;;;;;;;3.60;2.67;;;;;;;19.01;37.25;98219.51;2153325;82;21192;-80
2021/05/04 10:53:20;;;;;;;4.12;2.77;;;;;;;19.11;38.31;98222.81;2117098;83;21588;-79
2021/05/04 10:56:22;;;;;;;3.37;3.08;;;;;;;19.18;37.37;98212.30;2153064;82;21286;-81
2021/05/04 10:59:24;;;;;;;3.27;2.40;;;;;;;19.26;37.41;98209.74;2117110;84;21289;-79
2021/05/04 11:02:30;;;;;;;2.72;2.37;;;;;;;19.36;37.37;98210.38;2153421;82;21151;-81
2021/05/04 11:05:32;;;;;;;8.68;2.90;;;;;;;19.47;37.47;98200.15;2116874;83;21286;-78
2021/05/04 11:08:34;;;;;;;4.87;3.33;;;;;;;19.57;35.87;98192.35;2134233;83;21143;-80
2021/05/04 11:11:52;;;;;;;;;;;;;;;;;;;;;
2021/05/04 11:14:43;;;;;;;2.17;2.07;;;;;;;19.61;34.68;98177.51;2147484;82;21296;-81
2021/05/04 11:17:45;;;;;;;2.02;1.90;;;;;;;19.73;35.48;98181.33;2116908;83;21333;-80
2021/05/04 11:20:47;;;;;;;3.08;2.35;;;;;;;19.81;35.17;98172.91;2153127;82;21770;-80
2021/05/04 11:23:49;;;;;;;6.37;4.00;;;;;;;19.76;34.70;98172.36;2116888;83;21175;-80
2021/05/04 11:26:52;;;;;;;2.92;2.65;;;;;;;19.77;34.38;98170.50;2153057;83;21313;-80
2021/05/04 11:29:53;;;;;;;2.98;2.45;;;;;;;19.76;34.15;98171.55;2116936;84;21199;-79
2021/05/04 11:32:56;;;;;;;3.33;2.98;;;;;;;19.66;34.19;98158.98;2153348;83;21183;-80
2021/05/04 11:35:57;;;;;;;2.75;2.55;;;;;;;19.55;34.63;98155.90;2116650;84;21342;-80
2021/05/04 11:38:59;;;;;;;3.60;2.98;;;;;;;19.54;34.71;98154.30;2153470;82;21356;-79
2021/05/04 11:42:01;;;;;;;2.58;2.33;;;;;;;19.49;34.31;98148.42;2117185;83;21329;-79
2021/05/04 11:45:04;;;;;;;2.55;2.35;;;;;;;19.45;34.76;98138.55;2134294;83;21200;-79
2021/05/04 11:48:07;;;;;;;2.45;2.25;;;;;;;19.45;34.49;98140.67;2117019;84;21378;-80
2021/05/04 11:51:09;;;;;;;2.33;2.12;;;;;;;19.45;34.64;98126.07;2152986;82;21310;-78
2021/05/04 11:54:11;;;;;;;3.37;2.65;;;;;;;19.50;34.96;98127.98;2116848;83;21341;-79
2021/05/04 11:57:12;;;;;;;3.87;2.65;;;;;;;19.53;34.93;98129.60;2153030;83;22256;-81
2021/05/04 12:00:15;;;;;;;3.02;2.52;;;;;;;19.58;34.85;98115.09;2117167;84;21497;-81
2021/05/04 12:03:16;;;;;;;3.08;2.60;;;;;;;19.65;35.28;98115.39;2153284;82;21643;-79
2021/05/04 12:06:19;;;;;;;4.20;3.85;;;;;;;19.72;35.20;98104.04;2117084;83;21343;-79
2021/05/04 12:09:24;;;;;;;3.08;2.87;;;;;;;19.80;35.21;98091.62;2153051;82;21770;-79
2021/05/04 12:12:26;;;;;;;4.05;3.58;;;;;;;19.91;34.90;98090.64;2116691;84;21305;-79
2021/05/04 12:15:28;;;;;;;2.67;2.10;;;;;;;19.97;34.77;98084.84;2153408;83;21333;-80
2021/05/04 12:18:29;;;;;;;2.27;2.02;;;;;;;20.00;34.70;98079.81;2135127;83;21602;-80
2021/05/04 12:21:32;;;;;;;3.42;3.22;;;;;;;20.08;34.10;98065.25;2156319;83;21293;-79
2021/05/04 12:24:36;;;;;;;3.98;3.77;;;;;;;20.08;34.77;98054.62;2145711;83;21322;-79
2021/05/04 12:27:38;;;;;;;2.10;1.90;;;;;;;20.21;35.47;98048.88;2156408;83;21301;-80
2021/05/04 12:30:39;;;;;;;2.67;2.10;;;;;;;20.28;35.18;98040.12;2145876;83;21321;-79
2021/05/04 12:33:41;;;;;;;2.42;2.22;;;;;;;20.23;34.90;98038.78;2156680;83;21313;-80
2021/05/04 12:36:46;;;;;;;2.42;2.30;;;;;;;20.18;35.07;98024.12;2145899;83;21765;-81
2021/05/04 12:39:47;;;;;;;3.70;2.33;;;;;;;20.18;35.30;98024.12;2156280;83;21179;-80
2021/05/04 12:42:49;;;;;;;3.55;3.25;;;;;;;20.21;35.47;98018.31;2145977;83;21312;-79
2021/05/04 12:45:51;;;;;;;2.27;2.08;;;;;;;20.24;34.91;98013.00;2156486;83;21332;-81
2021/05/04 12:48:53;;;;;;;2.50;2.30;;;;;;;20.16;34.79;98003.13;2145892;83;21313;-81
2021/05/04 12:51:55;;;;;;;2.45;2.25;;;;;;;20.06;34.73;97990.32;2156065;83;21210;-79
2021/05/04 12:54:57;;;;;;;23.60;13.48;;;;;;;19.99;34.76;97986.55;2145706;83;21329;-79
2021/05/04 12:57:59;;;;;;;21.42;13.03;;;;;;;20.00;35.31;97976.72;2155849;83;21194;-78
2021/05/04 13:01:01;;;;;;;10.43;6.95;;;;;;;20.01;35.82;97975.66;2145478;83;21199;-79
2021/05/04 13:04:05;;;;;;;3.00;2.80;;;;;;;20.04;35.85;97971.19;2145751;83;21183;-80
2021/05/04 13:07:09;;;;;;;5.08;3.17;;;;;;;20.03;35.23;97959.76;2145671;83;21160;-80
2021/05/04 13:10:13;;;;;;;3.80;3.50;;;;;;;20.05;35.33;97948.87;2146002;83;21315;-80
2021/05/04 13:13:36;;;;;;;3.92;3.30;;;;;;;20.11;35.07;97941.16;2145568;83;21738;-80
2021/05/04 13:16:54;;;;;;;20.20;14.90;;;;;;;20.12;34.87;97946.78;2140863;83;21159;-80
2021/05/04 13:20:05;;;;;;;9.28;8.45;;;;;;;20.15;33.92;97940.41;2123012;83;21163;-83
2021/05/04 13:29:48;;;;;;;5.17;2.25;;;;;;;20.06;32.03;97927.34;2036594;87;21251;-81
2021/05/04 13:32:49;;;;;;;4.78;2.40;;;;;;;20.02;30.97;97923.59;2003774;89;21158;-82
2021/05/04 13:36:01;;;;;;;5.65;2.02;;;;;;;20.00;29.87;97910.30;2037479;87;21375;-83
2021/05/04 13:39:17;;;;;;;6.20;2.65;;;;;;;19.99;29.61;97907.38;2015521;88;21213;-81
2021/05/04 13:48:55;;;;;;;2.17;2.08;;;;;;;20.03;30.00;97899.17;2037233;87;21237;-83
2021/05/04 13:51:57;;;;;;;2.37;2.17;;;;;;;20.01;30.08;97884.80;2037072;87;21681;-85
2021/05/04 13:54:58;;;;;;;1.85;1.75;;;;;;;19.99;30.00;97876.30;2004124;89;22281;-82
2021/05/04 13:58:01;;;;;;;2.10;2.00;;;;;;;19.99;30.54;97877.62;2037421;87;21165;-85
2021/05/04 14:01:13;;;;;;;3.67;2.40;;;;;;;19.95;30.34;97871.78;2036726;87;21258;-81
2021/05/04 14:04:20;;;;;;;2.85;2.02;;;;;;;19.88;29.78;97868.82;2084966;85;21203;-81
2021/05/04 14:27:36;;;;;;;9.13;4.97;;;;;;;19.56;31.71;97841.58;2004120;89;21214;-83
2021/05/04 14:30:39;;;;;;;4.42;3.40;;;;;;;19.60;30.10;97846.66;2021453;88;21151;-87
2021/05/04 14:33:40;;;;;;;3.65;2.90;;;;;;;19.51;29.82;97848.17;2064698;86;21194;-84
2021/05/04 14:36:58;;;;;;;5.65;2.62;;;;;;;19.45;29.62;97845.21;2064758;86;21325;-84
2021/05/04 14:40:08;;;;;;;8.70;4.03;;;;;;;19.38;30.31;97852.07;2064246;86;21344;-85
2021/05/04 14:43:34;;;;;;;4.67;3.55;;;;;;;19.38;29.81;97838.00;2063350;86;21324;-84
2021/05/04 14:46:55;;;;;;;7.10;4.17;;;;;;;19.33;30.42;97842.23;2063071;86;21206;-85
2021/05/04 14:56:46;;;;;;;5.67;3.50;;;;;;;19.21;30.22;97821.74;2121515;82;21153;-84
2021/05/04 14:59:48;;;;;;;3.15;2.95;;;;;;;19.13;30.49;97816.12;2169503;82;21173;-84